createdAt,value
2023-05-21T00:01:50.162Z,80.79
2023-05-21T00:04:18.168Z,80.93
2023-05-21T00:06:46.601Z,81.21
2023-05-21T00:09:13.936Z,81.28
2023-05-21T00:11:41.081Z,81.40
2023-05-21T00:14:08.323Z,81.68
2023-05-21T00:16:35.737Z,81.71
2023-05-21T00:19:03.813Z,82.00
2023-05-21T00:21:32.055Z,82.16
2023-05-21T00:23:59.935Z,82.48
2023-05-21T00:26:28.487Z,82.67
2023-05-21T00:28:57.187Z,82.79
2023-05-21T00:31:24.557Z,82.63
2023-05-21T00:33:52.006Z,82.65
2023-05-21T00:36:24.089Z,82.68
2023-05-21T00:38:51.506Z,82.67
2023-05-21T00:41:19.044Z,82.67
2023-05-21T00:43:46.848Z,82.71
2023-05-21T00:46:17.089Z,82.78
2023-05-21T00:48:45.042Z,82.77
2023-05-21T00:51:14.062Z,82.79
2023-05-21T00:53:41.173Z,82.82
2023-05-21T00:56:08.285Z,82.88
2023-05-21T00:58:35.720Z,83.00
2023-05-21T01:01:07.227Z,83.09
2023-05-21T01:03:38.741Z,83.03
2023-05-21T01:06:08.467Z,83.24
2023-05-21T01:08:37.781Z,83.10
2023-05-21T01:11:05.539Z,83.28
2023-05-21T01:13:35.065Z,83.29
2023-05-21T01:16:02.292Z,83.58
2023-05-21T01:18:30.057Z,83.68
2023-05-21T01:23:17.552Z,83.62
2023-05-21T01:25:44.902Z,83.49
2023-05-21T01:28:12.631Z,83.57
2023-05-21T01:30:41.139Z,83.55
2023-05-21T01:33:34.366Z,83.71
2023-05-21T01:36:04.471Z,83.87
2023-05-21T01:38:41.126Z,83.95
2023-05-21T01:41:10.475Z,84.11
2023-05-21T01:43:38.785Z,84.18
2023-05-21T01:46:06.015Z,84.19
2023-05-21T01:48:33.245Z,84.03
2023-05-21T01:51:01.815Z,83.99
2023-05-21T01:53:29.055Z,84.06
2023-05-21T01:55:56.301Z,84.14
2023-05-21T01:58:23.838Z,84.28
2023-05-21T02:00:51.315Z,84.48
2023-05-21T02:03:19.374Z,84.62
2023-05-21T02:05:46.841Z,84.83
2023-05-21T02:08:15.882Z,84.92
2023-05-21T02:10:42.874Z,85.06
2023-05-21T02:13:10.092Z,84.97
2023-05-21T02:15:39.813Z,85.16
2023-05-21T02:18:08.111Z,85.33
2023-05-21T02:20:35.172Z,85.58
2023-05-21T02:23:02.268Z,85.69
2023-05-21T02:25:30.260Z,85.91
2023-05-21T02:27:57.833Z,86.09
2023-05-21T02:30:24.785Z,86.14
2023-05-21T02:32:52.646Z,86.29
2023-05-21T02:35:19.589Z,86.40
2023-05-21T02:37:46.641Z,86.46
2023-05-21T02:40:15.554Z,86.23
2023-05-21T02:42:42.762Z,86.17
2023-05-21T02:45:12.326Z,86.21
2023-05-21T02:47:42.404Z,86.10
2023-05-21T02:50:09.956Z,86.26
2023-05-21T02:52:44.008Z,86.48
2023-05-21T02:55:11.828Z,86.70
2023-05-21T02:57:38.881Z,86.59
2023-05-21T03:00:07.891Z,86.72
2023-05-21T03:02:38.465Z,86.85
2023-05-21T03:05:06.170Z,86.90
2023-05-21T03:07:34.860Z,87.07
2023-05-21T03:10:01.979Z,87.07
2023-05-21T03:12:30.518Z,87.19
2023-05-21T03:14:59.557Z,87.17
2023-05-21T03:17:28.285Z,87.17
2023-05-21T03:19:55.683Z,87.13
2023-05-21T03:22:23.085Z,86.91
2023-05-21T03:24:53.076Z,86.53
2023-05-21T03:27:20.582Z,86.19
2023-05-21T03:29:48.005Z,86.04
2023-05-21T03:32:18.152Z,85.70
2023-05-21T03:34:46.647Z,85.45
2023-05-21T03:37:14.965Z,85.17
2023-05-21T03:39:44.336Z,85.27
2023-05-21T03:42:13.581Z,85.48
2023-05-21T03:44:45.517Z,85.24
2023-05-21T03:47:27.166Z,85.19
2023-05-21T03:49:54.366Z,85.06
2023-05-21T03:52:21.573Z,84.77
2023-05-21T03:54:48.998Z,84.66
2023-05-21T03:57:16.454Z,84.70
2023-05-21T03:59:43.870Z,84.41
2023-05-21T04:02:11.015Z,84.00
2023-05-21T04:04:38.119Z,83.61
2023-05-21T04:07:06.308Z,83.09
2023-05-21T04:09:36.492Z,82.73
2023-05-21T04:12:04.434Z,82.48
2023-05-21T04:14:32.913Z,82.30
2023-05-21T04:17:00.030Z,80.48
2023-05-21T04:19:27.449Z,79.56
2023-05-21T04:21:54.617Z,78.03
2023-05-21T04:24:22.724Z,77.33
2023-05-21T04:27:09.625Z,75.86
2023-05-21T04:29:42.306Z,73.96
2023-05-21T04:32:09.209Z,72.33
2023-05-21T04:34:37.286Z,71.65
2023-05-21T04:37:04.440Z,72.24
2023-05-21T04:39:32.012Z,72.78
2023-05-21T04:41:59.499Z,71.99
2023-05-21T04:44:26.674Z,71.51
2023-05-21T04:46:55.019Z,71.83
2023-05-21T04:49:24.106Z,71.60
2023-05-21T04:51:51.979Z,71.34
2023-05-21T04:54:19.159Z,71.27
2023-05-21T04:56:47.711Z,70.75
2023-05-21T04:59:17.100Z,70.76
2023-05-21T05:01:45.566Z,71.14
2023-05-21T05:04:13.073Z,71.35
2023-05-21T05:06:42.819Z,72.03
2023-05-21T05:09:11.676Z,72.67
2023-05-21T05:11:43.382Z,72.43
2023-05-21T05:14:10.834Z,72.41
2023-05-21T05:16:38.566Z,72.35
2023-05-21T05:19:05.830Z,72.17
2023-05-21T05:21:33.103Z,71.85
2023-05-21T05:24:00.581Z,72.29
2023-05-21T05:26:29.871Z,72.39
2023-05-21T05:28:57.842Z,72.61
2023-05-21T05:31:25.257Z,72.80
2023-05-21T05:33:53.828Z,73.29
2023-05-21T05:36:23.492Z,73.73
2023-05-21T05:38:55.322Z,73.92
2023-05-21T05:41:23.017Z,74.14
2023-05-21T05:43:51.798Z,74.08
2023-05-21T05:46:20.553Z,74.65
2023-05-21T05:48:50.421Z,75.21
2023-05-21T05:51:19.959Z,75.91
2023-05-21T05:54:12.270Z,76.25
2023-05-21T05:56:44.779Z,76.36
2023-05-21T05:59:20.076Z,76.22
2023-05-21T06:02:30.999Z,76.38
2023-05-21T06:05:02.766Z,76.90
2023-05-21T06:07:39.024Z,77.29
2023-05-21T06:10:11.136Z,77.73
2023-05-21T06:14:45.148Z,78.64
2023-05-21T06:28:44.281Z,78.23
2023-05-21T06:31:14.535Z,77.58
2023-05-21T06:33:46.719Z,77.41
2023-05-21T06:36:14.356Z,77.45
2023-05-21T06:38:48.752Z,77.08
2023-05-21T06:41:19.003Z,77.00
2023-05-21T06:43:56.428Z,77.15
2023-05-21T06:46:48.398Z,76.95
2023-05-21T06:49:16.554Z,77.11
2023-05-21T06:51:44.969Z,77.04
2023-05-21T06:54:13.558Z,76.11
2023-05-21T06:56:41.838Z,75.77
2023-05-21T06:59:13.539Z,75.65
2023-05-21T07:01:44.579Z,75.56
2023-05-21T07:04:12.145Z,75.72
2023-05-21T07:06:40.259Z,75.74
2023-05-21T07:09:09.051Z,75.47
2023-05-21T07:11:37.057Z,75.88
2023-05-21T07:14:04.634Z,75.77
2023-05-21T07:16:34.104Z,75.68
2023-05-21T07:19:03.144Z,75.33
2023-05-21T07:21:46.075Z,75.09
2023-05-21T07:24:13.365Z,74.72
2023-05-21T07:26:44.284Z,74.87
2023-05-21T07:29:15.096Z,74.90
2023-05-21T07:31:43.340Z,75.16
2023-05-21T07:34:13.826Z,75.64
2023-05-21T07:36:41.796Z,76.07
2023-05-21T07:39:11.040Z,76.07
2023-05-21T07:41:38.727Z,75.94
2023-05-21T07:44:27.301Z,76.01
2023-05-21T07:47:06.324Z,76.12
2023-05-21T07:49:36.250Z,76.61
2023-05-21T07:52:13.617Z,77.03
2023-05-21T07:57:28.396Z,76.88
2023-05-21T08:00:01.229Z,76.53
2023-05-21T08:05:19.288Z,76.44
2023-05-21T08:07:46.745Z,76.22
2023-05-21T08:10:14.356Z,76.11
2023-05-21T08:12:41.874Z,75.88
2023-05-21T08:15:09.827Z,75.48
2023-05-21T08:17:42.247Z,74.99
2023-05-21T08:20:11.547Z,74.75
2023-05-21T08:22:39.231Z,74.34
2023-05-21T08:25:08.734Z,73.24
2023-05-21T08:27:36.911Z,73.26
2023-05-21T08:30:08.341Z,73.05
2023-05-21T08:32:35.809Z,72.80
2023-05-21T08:35:03.981Z,72.47
2023-05-21T08:38:00.841Z,71.33
2023-05-21T08:40:55.017Z,69.65
2023-05-21T08:43:22.845Z,68.51
2023-05-21T08:46:07.132Z,66.96
2023-05-21T08:48:39.274Z,65.71
2023-05-21T08:51:08.183Z,65.33
2023-05-21T08:53:46.269Z,66.16
2023-05-21T08:56:16.895Z,66.23
2023-05-21T08:58:52.529Z,66.39
2023-05-21T09:01:25.637Z,67.48
2023-05-21T09:04:20.128Z,67.81
2023-05-21T09:06:49.804Z,67.53
2023-05-21T09:09:44.561Z,68.23
2023-05-21T09:12:22.792Z,69.28
2023-05-21T09:15:05.647Z,69.62
2023-05-21T09:17:36.478Z,69.52
2023-05-21T09:20:26.733Z,69.61
2023-05-21T09:23:00.246Z,68.59
2023-05-21T09:25:30.483Z,68.12
2023-05-21T09:28:04.753Z,66.99
2023-05-21T09:30:36.292Z,66.99
2023-05-21T09:33:33.058Z,67.48
2023-05-21T09:36:08.106Z,67.30
2023-05-21T09:38:35.576Z,67.15
2023-05-21T09:41:07.389Z,65.92
2023-05-21T09:43:37.254Z,64.36
2023-05-21T09:46:06.644Z,62.54
2023-05-21T09:48:46.530Z,61.44
2023-05-21T09:51:17.937Z,59.65
2023-05-21T09:54:01.452Z,58.75
2023-05-21T09:56:32.687Z,59.26
2023-05-21T09:59:05.162Z,59.05
2023-05-21T10:01:37.139Z,58.97
2023-05-21T10:04:19.149Z,57.78
2023-05-21T10:06:49.407Z,55.93
2023-05-21T10:09:28.959Z,53.40
2023-05-21T10:11:58.181Z,52.94
2023-05-21T10:14:35.453Z,52.58
2023-05-21T10:17:18.451Z,50.44
2023-05-21T10:19:47.341Z,48.16
2023-05-21T10:22:14.915Z,46.33
2023-05-21T10:24:46.175Z,46.02
2023-05-21T10:27:13.798Z,44.85
2023-05-21T10:29:44.647Z,44.51
2023-05-21T10:32:13.901Z,43.46
2023-05-21T10:34:41.207Z,42.48
2023-05-21T10:37:11.010Z,42.23
2023-05-21T10:39:39.405Z,41.26
2023-05-21T10:42:23.146Z,40.44
2023-05-21T10:45:04.381Z,39.49
2023-05-21T10:47:45.220Z,38.20
2023-05-21T10:50:23.562Z,38.40
2023-05-21T10:53:51.336Z,36.65
2023-05-21T11:03:06.248Z,37.22
2023-05-21T11:06:06.033Z,37.45
2023-05-21T11:08:36.901Z,36.81
2023-05-21T11:11:53.951Z,36.62
2023-05-21T11:14:40.794Z,36.21
2023-05-21T11:18:38.430Z,36.26
2023-05-21T11:21:43.230Z,35.52
2023-05-21T11:24:27.880Z,35.86
2023-05-21T11:27:04.501Z,35.92
2023-05-21T11:29:43.942Z,36.59
2023-05-21T11:37:21.571Z,38.44
2023-05-21T11:43:25.138Z,38.74
2023-05-21T11:45:54.632Z,39.13
2023-05-21T11:48:32.420Z,39.44
2023-05-21T11:54:03.495Z,39.82
2023-05-21T11:56:42.654Z,39.46
2023-05-21T11:59:20.556Z,40.01
2023-05-21T12:11:09.493Z,41.32
2023-05-21T12:13:42.720Z,41.20
2023-05-21T12:27:08.233Z,42.52
2023-05-21T12:33:25.275Z,43.81
2023-05-21T12:36:10.253Z,44.34
2023-05-21T12:38:58.801Z,44.56
2023-05-21T12:48:59.635Z,44.81
2023-05-21T12:58:26.707Z,47.86
2023-05-21T13:18:13.756Z,53.15
2023-05-21T14:13:18.847Z,88.98
2023-05-21T14:19:45.026Z,93.86
2023-05-21T14:22:27.222Z,96.29
2023-05-21T15:29:42.251Z,100.00
2023-05-21T15:56:44.717Z,100.00
2023-05-21T15:59:33.757Z,100.00
2023-05-21T17:45:21.487Z,100.00
2023-05-21T17:47:58.851Z,100.00
2023-05-21T17:53:36.994Z,100.00
2023-05-21T17:56:39.715Z,100.00
2023-05-21T17:59:24.749Z,100.00
2023-05-21T18:02:10.034Z,100.00
2023-05-21T18:07:59.958Z,100.00
2023-05-21T18:20:33.335Z,100.00
2023-05-21T18:23:22.922Z,100.00
2023-05-21T18:29:15.668Z,100.00
2023-05-21T18:32:02.830Z,100.00
2023-05-21T18:34:41.708Z,100.00
2023-05-21T18:41:30.927Z,100.00
2023-05-21T18:47:37.843Z,100.00
2023-05-21T18:50:27.090Z,100.00
2023-05-21T18:53:08.071Z,100.00
2023-05-21T18:56:28.323Z,100.00
2023-05-21T18:59:06.264Z,100.00
2023-05-21T19:04:54.004Z,100.00
2023-05-21T19:07:36.498Z,100.00
2023-05-21T19:10:12.122Z,100.00
2023-05-21T19:16:34.200Z,100.00
2023-05-21T19:19:18.589Z,100.00
2023-05-21T19:46:20.341Z,100.00
2023-05-21T20:06:44.741Z,100.00
2023-05-21T20:23:16.893Z,100.00
2023-05-21T20:28:51.671Z,100.00
2023-05-21T20:31:48.296Z,100.00
2023-05-21T20:34:47.213Z,100.00
2023-05-21T20:37:29.536Z,100.00
2023-05-21T20:46:06.667Z,100.00
2023-05-21T20:49:07.020Z,100.00
2023-05-21T20:54:44.181Z,100.00
2023-05-21T20:57:20.382Z,100.00
2023-05-21T21:02:54.444Z,100.00
2023-05-21T21:05:45.177Z,100.00
2023-05-21T21:08:37.059Z,100.00
2023-05-21T21:12:31.199Z,100.00
2023-05-21T21:19:03.816Z,100.00
2023-05-21T21:21:45.642Z,100.00
2023-05-21T21:24:16.860Z,100.00
2023-05-21T21:26:49.842Z,100.00
2023-05-21T21:29:21.024Z,100.00
2023-05-21T21:32:00.955Z,100.00
2023-05-21T21:34:52.290Z,100.00
2023-05-21T21:38:28.253Z,100.00
2023-05-21T21:41:03.580Z,100.00
2023-05-21T21:43:33.109Z,100.00
2023-05-21T21:46:02.322Z,100.00
2023-05-21T21:48:37.702Z,100.00
2023-05-21T21:51:07.763Z,100.00
2023-05-21T21:53:35.798Z,100.00
2023-05-21T21:56:04.596Z,100.00
2023-05-21T21:58:34.710Z,100.00
2023-05-21T22:01:02.451Z,100.00
2023-05-21T22:03:38.013Z,100.00
2023-05-21T22:06:07.017Z,100.00
2023-05-21T22:08:57.653Z,100.00
2023-05-21T22:11:28.670Z,100.00
2023-05-21T22:14:00.707Z,100.00
2023-05-21T22:16:42.686Z,100.00
2023-05-21T22:19:24.431Z,100.00
2023-05-21T22:21:55.397Z,100.00
2023-05-21T22:24:33.161Z,100.00
2023-05-21T22:27:17.621Z,100.00
2023-05-21T22:32:54.763Z,100.00
2023-05-21T22:35:57.604Z,100.00
2023-05-21T22:38:33.648Z,100.00
2023-05-21T22:41:31.950Z,100.00
2023-05-21T22:44:03.098Z,100.00
2023-05-21T22:46:46.055Z,100.00
2023-05-21T22:49:28.336Z,100.00
2023-05-21T22:52:16.220Z,100.00
2023-05-21T22:54:51.417Z,100.00
2023-05-21T22:57:35.813Z,100.00
2023-05-21T23:00:24.133Z,100.00
2023-05-21T23:02:54.557Z,100.00
2023-05-21T23:05:29.791Z,100.00
2023-05-21T23:08:01.155Z,100.00
2023-05-21T23:10:29.137Z,100.00
2023-05-21T23:15:44.336Z,100.00
2023-05-21T23:18:13.314Z,100.00
2023-05-21T23:20:43.899Z,100.00
2023-05-21T23:23:11.841Z,100.00
2023-05-21T23:25:39.016Z,100.00
2023-05-21T23:28:06.344Z,100.00
2023-05-21T23:30:33.669Z,100.00
2023-05-21T23:33:02.733Z,100.00
2023-05-21T23:35:30.142Z,100.00
2023-05-21T23:38:14.758Z,100.00
2023-05-21T23:40:43.490Z,100.00
2023-05-21T23:43:13.085Z,100.00
2023-05-21T23:45:41.603Z,100.00
2023-05-21T23:48:10.054Z,100.00
2023-05-21T23:50:37.513Z,100.00
2023-05-21T23:53:05.129Z,100.00
2023-05-21T23:55:35.003Z,100.00
2023-05-21T23:58:04.832Z,100.00
